sensor_id;sensor_type;location;lat;lon;timestamp;P1;durP1;ratioP1;P2;durP2;ratioP2
53903;SDS011;39812;52.430;16.936;2024-01-15T00:02:15;26.60;;;11.13;;
53903;SDS011;39812;52.430;16.936;2024-01-15T00:04:41;21.67;;;9.40;;
53903;SDS011;39812;52.430;16.936;2024-01-15T00:07:07;22.60;;;13.50;;
53903;SDS011;39812;52.430;16.936;2024-01-15T00:09:33;22.70;;;11.85;;
53903;SDS011;39812;52.430;16.936;2024-01-15T00:11:59;17.38;;;8.25;;
53903;SDS011;39812;52.430;16.936;2024-01-15T00:14:25;15.02;;;8.82;;
53903;SDS011;39812;52.430;16.936;2024-01-15T00:16:51;18.42;;;10.07;;
53903;SDS011;39812;52.430;16.936;2024-01-15T00:19:17;23.10;;;11.93;;
53903;SDS011;39812;52.430;16.936;2024-01-15T00:21:43;18.10;;;9.50;;
53903;SDS011;39812;52.430;16.936;2024-01-15T00:24:09;21.90;;;10.98;;
53903;SDS011;39812;52.430;16.936;2024-01-15T00:26:35;26.30;;;13.05;;
53903;SDS011;39812;52.430;16.936;2024-01-15T00:29:00;25.45;;;12.82;;
53903;SDS011;39812;52.430;16.936;2024-01-15T00:31:26;28.08;;;14.88;;
53903;SDS011;39812;52.430;16.936;2024-01-15T00:33:52;26.30;;;13.32;;
53903;SDS011;39812;52.430;16.936;2024-01-15T00:36:17;26.75;;;13.50;;
53903;SDS011;39812;52.430;16.936;2024-01-15T00:38:46;20.63;;;10.70;;
53903;SDS011;39812;52.430;16.936;2024-01-15T00:41:12;21.95;;;11.80;;
53903;SDS011;39812;52.430;16.936;2024-01-15T00:43:38;30.77;;;14.68;;
53903;SDS011;39812;52.430;16.936;2024-01-15T00:46:04;32.40;;;16.23;;
53903;SDS011;39812;52.430;16.936;2024-01-15T00:48:30;23.50;;;11.20;;
53903;SDS011;39812;52.430;16.936;2024-01-15T00:50:56;28.92;;;13.23;;
53903;SDS011;39812;52.430;16.936;2024-01-15T00:53:22;27.95;;;12.60;;
53903;SDS011;39812;52.430;16.936;2024-01-15T00:55:48;24.13;;;11.02;;
53903;SDS011;39812;52.430;16.936;2024-01-15T00:58:14;31.85;;;13.07;;
53903;SDS011;39812;52.430;16.936;2024-01-15T01:00:39;35.55;;;17.35;;
53903;SDS011;39812;52.430;16.936;2024-01-15T01:03:05;30.70;;;15.00;;
53903;SDS011;39812;52.430;16.936;2024-01-15T01:05:31;26.00;;;12.85;;
53903;SDS011;39812;52.430;16.936;2024-01-15T01:07:57;30.83;;;15.07;;
53903;SDS011;39812;52.430;16.936;2024-01-15T01:10:23;30.65;;;14.05;;
53903;SDS011;39812;52.430;16.936;2024-01-15T01:12:48;30.20;;;16.05;;
53903;SDS011;39812;52.430;16.936;2024-01-15T01:15:14;27.40;;;11.75;;
53903;SDS011;39812;52.430;16.936;2024-01-15T01:17:40;29.10;;;14.85;;
53903;SDS011;39812;52.430;16.936;2024-01-15T01:20:06;27.23;;;14.70;;
53903;SDS011;39812;52.430;16.936;2024-01-15T01:22:34;31.30;;;15.15;;
53903;SDS011;39812;52.430;16.936;2024-01-15T01:24:59;24.42;;;11.02;;
53903;SDS011;39812;52.430;16.936;2024-01-15T01:27:25;22.10;;;10.43;;
53903;SDS011;39812;52.430;16.936;2024-01-15T01:29:51;26.60;;;13.05;;
53903;SDS011;39812;52.430;16.936;2024-01-15T01:32:16;31.60;;;12.98;;
53903;SDS011;39812;52.430;16.936;2024-01-15T01:34:42;24.45;;;12.65;;
53903;SDS011;39812;52.430;16.936;2024-01-15T01:37:09;31.08;;;14.68;;
53903;SDS011;39812;52.430;16.936;2024-01-15T01:39:37;31.65;;;15.02;;
53903;SDS011;39812;52.430;16.936;2024-01-15T01:42:03;26.15;;;12.95;;
53903;SDS011;39812;52.430;16.936;2024-01-15T01:44:29;30.27;;;16.13;;
53903;SDS011;39812;52.430;16.936;2024-01-15T01:46:54;25.67;;;12.15;;
53903;SDS011;39812;52.430;16.936;2024-01-15T01:49:22;24.73;;;12.20;;
53903;SDS011;39812;52.430;16.936;2024-01-15T01:51:48;26.40;;;12.27;;
53903;SDS011;39812;52.430;16.936;2024-01-15T01:54:14;24.95;;;12.30;;
53903;SDS011;39812;52.430;16.936;2024-01-15T01:56:40;22.63;;;11.20;;
53903;SDS011;39812;52.430;16.936;2024-01-15T01:59:07;19.65;;;9.68;;
53903;SDS011;39812;52.430;16.936;2024-01-15T02:01:34;27.60;;;12.40;;
53903;SDS011;39812;52.430;16.936;2024-01-15T02:04:00;21.88;;;12.00;;
53903;SDS011;39812;52.430;16.936;2024-01-15T02:06:26;22.63;;;10.18;;
53903;SDS011;39812;52.430;16.936;2024-01-15T02:08:52;24.50;;;12.40;;
53903;SDS011;39812;52.430;16.936;2024-01-15T02:11:18;21.55;;;11.77;;
53903;SDS011;39812;52.430;16.936;2024-01-15T02:13:44;19.30;;;9.80;;
53903;SDS011;39812;52.430;16.936;2024-01-15T02:16:09;25.23;;;10.80;;
53903;SDS011;39812;52.430;16.936;2024-01-15T02:18:41;23.20;;;12.57;;
53903;SDS011;39812;52.430;16.936;2024-01-15T02:21:08;20.52;;;11.45;;
53903;SDS011;39812;52.430;16.936;2024-01-15T02:23:34;20.13;;;9.80;;
53903;SDS011;39812;52.430;16.936;2024-01-15T02:26:00;19.63;;;10.88;;
53903;SDS011;39812;52.430;16.936;2024-01-15T02:28:26;23.50;;;13.40;;
53903;SDS011;39812;52.430;16.936;2024-01-15T02:30:52;21.08;;;11.10;;
53903;SDS011;39812;52.430;16.936;2024-01-15T02:33:17;18.48;;;8.38;;
53903;SDS011;39812;52.430;16.936;2024-01-15T02:35:43;19.10;;;10.20;;
53903;SDS011;39812;52.430;16.936;2024-01-15T02:38:08;15.55;;;9.70;;
53903;SDS011;39812;52.430;16.936;2024-01-15T02:40:34;16.60;;;8.30;;
53903;SDS011;39812;52.430;16.936;2024-01-15T02:43:00;16.00;;;10.48;;
53903;SDS011;39812;52.430;16.936;2024-01-15T02:45:26;23.42;;;9.57;;
53903;SDS011;39812;52.430;16.936;2024-01-15T02:47:52;17.88;;;8.95;;
53903;SDS011;39812;52.430;16.936;2024-01-15T02:50:18;16.50;;;8.70;;
53903;SDS011;39812;52.430;16.936;2024-01-15T02:52:43;18.60;;;10.13;;
53903;SDS011;39812;52.430;16.936;2024-01-15T02:55:09;16.95;;;9.25;;
53903;SDS011;39812;52.430;16.936;2024-01-15T02:57:35;21.92;;;11.95;;
53903;SDS011;39812;52.430;16.936;2024-01-15T03:00:01;18.92;;;7.88;;
53903;SDS011;39812;52.430;16.936;2024-01-15T03:02:28;18.80;;;10.05;;
53903;SDS011;39812;52.430;16.936;2024-01-15T03:04:56;16.88;;;9.15;;
53903;SDS011;39812;52.430;16.936;2024-01-15T03:07:22;17.23;;;8.88;;
53903;SDS011;39812;52.430;16.936;2024-01-15T03:09:48;18.40;;;10.48;;
53903;SDS011;39812;52.430;16.936;2024-01-15T03:12:14;18.98;;;10.55;;
53903;SDS011;39812;52.430;16.936;2024-01-15T03:14:40;19.33;;;10.85;;
53903;SDS011;39812;52.430;16.936;2024-01-15T03:17:06;19.33;;;9.00;;
53903;SDS011;39812;52.430;16.936;2024-01-15T03:19:34;21.13;;;10.13;;
53903;SDS011;39812;52.430;16.936;2024-01-15T03:22:00;17.58;;;9.30;;
53903;SDS011;39812;52.430;16.936;2024-01-15T03:24:27;25.15;;;13.15;;
53903;SDS011;39812;52.430;16.936;2024-01-15T03:26:53;16.77;;;9.63;;
53903;SDS011;39812;52.430;16.936;2024-01-15T03:29:18;21.98;;;10.45;;
53903;SDS011;39812;52.430;16.936;2024-01-15T03:31:44;24.00;;;12.10;;
53903;SDS011;39812;52.430;16.936;2024-01-15T03:34:10;25.85;;;13.07;;
53903;SDS011;39812;52.430;16.936;2024-01-15T03:36:36;30.10;;;14.63;;
53903;SDS011;39812;52.430;16.936;2024-01-15T03:39:02;20.38;;;9.65;;
53903;SDS011;39812;52.430;16.936;2024-01-15T03:41:27;21.60;;;10.65;;
53903;SDS011;39812;52.430;16.936;2024-01-15T03:43:53;25.17;;;12.45;;
53903;SDS011;39812;52.430;16.936;2024-01-15T03:46:19;30.50;;;13.23;;
53903;SDS011;39812;52.430;16.936;2024-01-15T03:48:44;28.42;;;13.63;;
53903;SDS011;39812;52.430;16.936;2024-01-15T03:51:10;30.98;;;14.23;;
53903;SDS011;39812;52.430;16.936;2024-01-15T03:53:36;33.85;;;16.20;;
53903;SDS011;39812;52.430;16.936;2024-01-15T03:56:03;39.15;;;17.70;;
53903;SDS011;39812;52.430;16.936;2024-01-15T03:58:28;23.38;;;12.13;;
53903;SDS011;39812;52.430;16.936;2024-01-15T04:00:54;32.22;;;15.85;;
53903;SDS011;39812;52.430;16.936;2024-01-15T04:03:20;25.65;;;10.02;;
53903;SDS011;39812;52.430;16.936;2024-01-15T04:05:46;28.10;;;12.55;;
53903;SDS011;39812;52.430;16.936;2024-01-15T04:08:11;31.35;;;16.00;;
53903;SDS011;39812;52.430;16.936;2024-01-15T04:10:37;30.42;;;14.32;;
53903;SDS011;39812;52.430;16.936;2024-01-15T04:13:02;27.65;;;12.15;;
53903;SDS011;39812;52.430;16.936;2024-01-15T04:15:28;24.92;;;11.00;;
53903;SDS011;39812;52.430;16.936;2024-01-15T04:17:54;26.92;;;13.50;;
53903;SDS011;39812;52.430;16.936;2024-01-15T04:20:20;21.60;;;9.93;;
53903;SDS011;39812;52.430;16.936;2024-01-15T04:22:45;29.02;;;10.88;;
53903;SDS011;39812;52.430;16.936;2024-01-15T04:25:11;18.65;;;9.60;;
53903;SDS011;39812;52.430;16.936;2024-01-15T04:27:37;24.13;;;10.95;;
53903;SDS011;39812;52.430;16.936;2024-01-15T04:30:03;29.38;;;13.07;;
53903;SDS011;39812;52.430;16.936;2024-01-15T04:32:29;16.52;;;8.00;;
53903;SDS011;39812;52.430;16.936;2024-01-15T04:34:54;16.10;;;9.38;;
53903;SDS011;39812;52.430;16.936;2024-01-15T04:37:20;20.38;;;10.13;;
53903;SDS011;39812;52.430;16.936;2024-01-15T04:39:46;19.17;;;10.73;;
53903;SDS011;39812;52.430;16.936;2024-01-15T04:42:12;20.60;;;10.80;;
53903;SDS011;39812;52.430;16.936;2024-01-15T04:44:38;19.67;;;10.52;;
53903;SDS011;39812;52.430;16.936;2024-01-15T04:47:04;17.13;;;10.35;;
53903;SDS011;39812;52.430;16.936;2024-01-15T04:49:30;12.23;;;7.45;;
53903;SDS011;39812;52.430;16.936;2024-01-15T04:51:55;13.18;;;6.38;;
53903;SDS011;39812;52.430;16.936;2024-01-15T04:54:21;14.95;;;6.85;;
53903;SDS011;39812;52.430;16.936;2024-01-15T04:56:47;9.57;;;6.10;;
53903;SDS011;39812;52.430;16.936;2024-01-15T04:59:13;15.90;;;7.90;;
53903;SDS011;39812;52.430;16.936;2024-01-15T05:01:39;7.35;;;4.55;;
53903;SDS011;39812;52.430;16.936;2024-01-15T05:04:05;12.48;;;7.13;;
53903;SDS011;39812;52.430;16.936;2024-01-15T05:06:31;11.57;;;7.15;;
53903;SDS011;39812;52.430;16.936;2024-01-15T05:08:56;9.43;;;4.68;;
53903;SDS011;39812;52.430;16.936;2024-01-15T05:11:22;11.20;;;7.00;;
53903;SDS011;39812;52.430;16.936;2024-01-15T05:13:48;9.38;;;4.90;;
53903;SDS011;39812;52.430;16.936;2024-01-15T05:16:14;11.35;;;5.53;;
53903;SDS011;39812;52.430;16.936;2024-01-15T05:18:40;8.00;;;5.22;;
53903;SDS011;39812;52.430;16.936;2024-01-15T05:21:05;10.23;;;4.75;;
53903;SDS011;39812;52.430;16.936;2024-01-15T05:23:31;10.52;;;5.35;;
53903;SDS011;39812;52.430;16.936;2024-01-15T05:25:57;9.73;;;5.70;;
53903;SDS011;39812;52.430;16.936;2024-01-15T05:28:23;10.70;;;4.90;;
53903;SDS011;39812;52.430;16.936;2024-01-15T05:30:49;12.10;;;6.18;;
53903;SDS011;39812;52.430;16.936;2024-01-15T05:33:15;9.25;;;5.88;;
53903;SDS011;39812;52.430;16.936;2024-01-15T05:35:41;12.20;;;6.40;;
53903;SDS011;39812;52.430;16.936;2024-01-15T05:38:07;12.38;;;6.55;;
53903;SDS011;39812;52.430;16.936;2024-01-15T05:40:33;8.43;;;4.60;;
53903;SDS011;39812;52.430;16.936;2024-01-15T05:42:59;8.18;;;4.75;;
53903;SDS011;39812;52.430;16.936;2024-01-15T05:45:28;7.70;;;4.50;;
53903;SDS011;39812;52.430;16.936;2024-01-15T05:47:55;8.43;;;4.63;;
53903;SDS011;39812;52.430;16.936;2024-01-15T05:50:20;9.20;;;5.10;;
53903;SDS011;39812;52.430;16.936;2024-01-15T05:52:47;12.63;;;5.88;;
53903;SDS011;39812;52.430;16.936;2024-01-15T05:55:12;10.50;;;6.00;;
53903;SDS011;39812;52.430;16.936;2024-01-15T05:57:38;10.45;;;5.72;;
53903;SDS011;39812;52.430;16.936;2024-01-15T06:00:04;10.05;;;4.75;;
53903;SDS011;39812;52.430;16.936;2024-01-15T06:02:30;9.05;;;5.18;;
53903;SDS011;39812;52.430;16.936;2024-01-15T06:04:56;11.13;;;5.32;;
53903;SDS011;39812;52.430;16.936;2024-01-15T06:07:22;7.68;;;5.32;;
53903;SDS011;39812;52.430;16.936;2024-01-15T06:09:48;7.72;;;4.30;;
53903;SDS011;39812;52.430;16.936;2024-01-15T06:12:13;6.78;;;5.30;;
53903;SDS011;39812;52.430;16.936;2024-01-15T06:14:40;7.45;;;3.83;;
53903;SDS011;39812;52.430;16.936;2024-01-15T06:17:07;9.15;;;4.88;;
53903;SDS011;39812;52.430;16.936;2024-01-15T06:19:33;8.02;;;4.72;;
53903;SDS011;39812;52.430;16.936;2024-01-15T06:21:59;7.38;;;4.55;;
53903;SDS011;39812;52.430;16.936;2024-01-15T06:24:25;11.25;;;5.47;;
53903;SDS011;39812;52.430;16.936;2024-01-15T06:26:50;9.43;;;4.60;;
53903;SDS011;39812;52.430;16.936;2024-01-15T06:29:16;13.93;;;5.70;;
53903;SDS011;39812;52.430;16.936;2024-01-15T06:31:42;9.35;;;5.38;;
53903;SDS011;39812;52.430;16.936;2024-01-15T06:34:08;8.25;;;4.60;;
53903;SDS011;39812;52.430;16.936;2024-01-15T06:36:33;10.15;;;6.18;;
53903;SDS011;39812;52.430;16.936;2024-01-15T06:38:59;9.23;;;4.18;;
53903;SDS011;39812;52.430;16.936;2024-01-15T06:41:25;8.55;;;4.00;;
53903;SDS011;39812;52.430;16.936;2024-01-15T06:43:51;9.95;;;4.90;;
53903;SDS011;39812;52.430;16.936;2024-01-15T06:46:20;10.40;;;6.45;;
53903;SDS011;39812;52.430;16.936;2024-01-15T06:48:46;13.45;;;6.57;;
53903;SDS011;39812;52.430;16.936;2024-01-15T06:51:12;9.43;;;4.20;;
53903;SDS011;39812;52.430;16.936;2024-01-15T06:53:37;10.27;;;6.05;;
53903;SDS011;39812;52.430;16.936;2024-01-15T06:56:03;12.35;;;5.85;;
53903;SDS011;39812;52.430;16.936;2024-01-15T06:58:30;11.98;;;5.60;;
53903;SDS011;39812;52.430;16.936;2024-01-15T07:00:56;13.07;;;5.07;;
53903;SDS011;39812;52.430;16.936;2024-01-15T07:03:22;12.77;;;6.43;;
53903;SDS011;39812;52.430;16.936;2024-01-15T07:05:48;8.73;;;4.65;;
53903;SDS011;39812;52.430;16.936;2024-01-15T07:08:14;11.65;;;5.82;;
53903;SDS011;39812;52.430;16.936;2024-01-15T07:10:40;13.05;;;5.72;;
53903;SDS011;39812;52.430;16.936;2024-01-15T07:13:06;11.55;;;5.93;;
53903;SDS011;39812;52.430;16.936;2024-01-15T07:15:32;11.25;;;4.35;;
53903;SDS011;39812;52.430;16.936;2024-01-15T07:17:58;10.40;;;5.03;;
53903;SDS011;39812;52.430;16.936;2024-01-15T07:20:23;10.15;;;5.38;;
53903;SDS011;39812;52.430;16.936;2024-01-15T07:22:49;9.27;;;5.35;;
53903;SDS011;39812;52.430;16.936;2024-01-15T07:25:15;8.18;;;4.47;;
53903;SDS011;39812;52.430;16.936;2024-01-15T07:27:41;15.07;;;6.10;;
53903;SDS011;39812;52.430;16.936;2024-01-15T07:30:09;10.30;;;5.35;;
53903;SDS011;39812;52.430;16.936;2024-01-15T07:32:36;10.57;;;4.45;;
53903;SDS011;39812;52.430;16.936;2024-01-15T07:35:02;7.28;;;4.07;;
53903;SDS011;39812;52.430;16.936;2024-01-15T07:37:28;10.57;;;3.72;;
53903;SDS011;39812;52.430;16.936;2024-01-15T07:39:53;11.90;;;5.38;;
53903;SDS011;39812;52.430;16.936;2024-01-15T07:42:19;10.27;;;3.90;;
53903;SDS011;39812;52.430;16.936;2024-01-15T07:44:45;9.57;;;6.07;;
53903;SDS011;39812;52.430;16.936;2024-01-15T07:47:12;11.68;;;6.10;;
53903;SDS011;39812;52.430;16.936;2024-01-15T07:49:38;8.77;;;5.15;;
53903;SDS011;39812;52.430;16.936;2024-01-15T07:52:04;13.68;;;6.20;;
53903;SDS011;39812;52.430;16.936;2024-01-15T07:54:30;9.20;;;5.13;;
53903;SDS011;39812;52.430;16.936;2024-01-15T07:57:01;9.65;;;4.70;;
53903;SDS011;39812;52.430;16.936;2024-01-15T07:59:30;12.73;;;5.18;;
53903;SDS011;39812;52.430;16.936;2024-01-15T08:01:55;9.30;;;5.30;;
53903;SDS011;39812;52.430;16.936;2024-01-15T08:04:21;10.50;;;5.25;;
53903;SDS011;39812;52.430;16.936;2024-01-15T08:06:47;10.45;;;4.55;;
53903;SDS011;39812;52.430;16.936;2024-01-15T08:09:13;9.35;;;5.65;;
53903;SDS011;39812;52.430;16.936;2024-01-15T08:11:39;8.75;;;5.10;;
53903;SDS011;39812;52.430;16.936;2024-01-15T08:14:06;8.80;;;4.93;;
53903;SDS011;39812;52.430;16.936;2024-01-15T08:16:32;7.93;;;4.32;;
53903;SDS011;39812;52.430;16.936;2024-01-15T08:18:58;11.15;;;5.22;;
53903;SDS011;39812;52.430;16.936;2024-01-15T08:21:24;12.82;;;5.45;;
53903;SDS011;39812;52.430;16.936;2024-01-15T08:23:52;14.23;;;5.65;;
53903;SDS011;39812;52.430;16.936;2024-01-15T08:26:18;16.95;;;5.60;;
53903;SDS011;39812;52.430;16.936;2024-01-15T08:28:44;14.13;;;7.28;;
53903;SDS011;39812;52.430;16.936;2024-01-15T08:31:09;9.82;;;4.35;;
53903;SDS011;39812;52.430;16.936;2024-01-15T08:33:35;11.90;;;5.35;;
53903;SDS011;39812;52.430;16.936;2024-01-15T08:36:01;14.98;;;7.43;;
53903;SDS011;39812;52.430;16.936;2024-01-15T08:38:27;13.90;;;7.03;;
53903;SDS011;39812;52.430;16.936;2024-01-15T08:40:53;10.48;;;5.72;;
53903;SDS011;39812;52.430;16.936;2024-01-15T08:43:21;12.23;;;5.38;;
53903;SDS011;39812;52.430;16.936;2024-01-15T08:45:47;12.63;;;6.13;;
53903;SDS011;39812;52.430;16.936;2024-01-15T08:48:13;10.00;;;5.25;;
53903;SDS011;39812;52.430;16.936;2024-01-15T08:50:39;9.80;;;5.25;;
53903;SDS011;39812;52.430;16.936;2024-01-15T08:53:05;9.65;;;5.20;;
53903;SDS011;39812;52.430;16.936;2024-01-15T08:55:31;12.23;;;5.57;;
53903;SDS011;39812;52.430;16.936;2024-01-15T08:57:56;10.57;;;5.40;;
53903;SDS011;39812;52.430;16.936;2024-01-15T09:00:22;12.18;;;4.57;;
53903;SDS011;39812;52.430;16.936;2024-01-15T09:02:48;8.93;;;4.45;;
53903;SDS011;39812;52.430;16.936;2024-01-15T09:05:14;11.30;;;5.55;;
53903;SDS011;39812;52.430;16.936;2024-01-15T09:07:40;13.00;;;4.55;;
53903;SDS011;39812;52.430;16.936;2024-01-15T09:10:05;12.65;;;5.38;;
53903;SDS011;39812;52.430;16.936;2024-01-15T09:12:31;12.35;;;5.38;;
53903;SDS011;39812;52.430;16.936;2024-01-15T09:14:57;7.93;;;4.20;;
53903;SDS011;39812;52.430;16.936;2024-01-15T09:17:23;12.93;;;5.07;;
53903;SDS011;39812;52.430;16.936;2024-01-15T09:19:48;11.77;;;4.53;;
53903;SDS011;39812;52.430;16.936;2024-01-15T09:22:14;9.40;;;5.07;;
53903;SDS011;39812;52.430;16.936;2024-01-15T09:24:43;8.38;;;4.32;;
53903;SDS011;39812;52.430;16.936;2024-01-15T09:27:09;15.55;;;5.68;;
53903;SDS011;39812;52.430;16.936;2024-01-15T09:29:34;13.38;;;6.40;;
53903;SDS011;39812;52.430;16.936;2024-01-15T09:32:04;19.60;;;8.43;;
53903;SDS011;39812;52.430;16.936;2024-01-15T09:34:31;20.05;;;8.07;;
53903;SDS011;39812;52.430;16.936;2024-01-15T09:36:57;14.18;;;7.20;;
53903;SDS011;39812;52.430;16.936;2024-01-15T09:39:24;18.25;;;6.97;;
53903;SDS011;39812;52.430;16.936;2024-01-15T09:41:51;27.10;;;11.18;;
53903;SDS011;39812;52.430;16.936;2024-01-15T09:44:17;22.65;;;10.80;;
53903;SDS011;39812;52.430;16.936;2024-01-15T09:46:44;22.98;;;8.85;;
53903;SDS011;39812;52.430;16.936;2024-01-15T09:49:11;23.42;;;10.00;;
53903;SDS011;39812;52.430;16.936;2024-01-15T09:51:37;33.80;;;12.80;;
53903;SDS011;39812;52.430;16.936;2024-01-15T09:54:04;26.63;;;10.15;;
53903;SDS011;39812;52.430;16.936;2024-01-15T09:56:30;27.20;;;10.90;;
53903;SDS011;39812;52.430;16.936;2024-01-15T09:58:56;22.85;;;8.18;;
53903;SDS011;39812;52.430;16.936;2024-01-15T10:01:23;30.88;;;11.27;;
53903;SDS011;39812;52.430;16.936;2024-01-15T10:03:49;30.10;;;11.30;;
53903;SDS011;39812;52.430;16.936;2024-01-15T10:06:16;21.02;;;10.18;;
53903;SDS011;39812;52.430;16.936;2024-01-15T10:08:48;28.27;;;10.02;;
53903;SDS011;39812;52.430;16.936;2024-01-15T10:11:15;22.67;;;8.82;;
53903;SDS011;39812;52.430;16.936;2024-01-15T10:13:44;16.55;;;9.25;;
53903;SDS011;39812;52.430;16.936;2024-01-15T10:16:11;14.73;;;6.35;;
53903;SDS011;39812;52.430;16.936;2024-01-15T10:18:37;13.07;;;6.22;;
53903;SDS011;39812;52.430;16.936;2024-01-15T10:21:04;20.75;;;6.72;;
53903;SDS011;39812;52.430;16.936;2024-01-15T10:23:32;9.38;;;4.32;;
53903;SDS011;39812;52.430;16.936;2024-01-15T10:25:58;12.60;;;5.93;;
53903;SDS011;39812;52.430;16.936;2024-01-15T10:28:26;11.90;;;5.68;;
53903;SDS011;39812;52.430;16.936;2024-01-15T10:30:53;11.45;;;5.32;;
53903;SDS011;39812;52.430;16.936;2024-01-15T10:33:21;9.48;;;4.65;;
53903;SDS011;39812;52.430;16.936;2024-01-15T10:35:50;11.82;;;3.88;;
53903;SDS011;39812;52.430;16.936;2024-01-15T10:38:18;9.48;;;4.57;;
53903;SDS011;39812;52.430;16.936;2024-01-15T10:40:47;10.52;;;4.97;;
53903;SDS011;39812;52.430;16.936;2024-01-15T10:43:16;7.55;;;3.85;;
53903;SDS011;39812;52.430;16.936;2024-01-15T10:45:45;15.38;;;5.68;;
53903;SDS011;39812;52.430;16.936;2024-01-15T10:48:11;9.27;;;5.53;;
53903;SDS011;39812;52.430;16.936;2024-01-15T10:50:37;12.75;;;4.80;;
53903;SDS011;39812;52.430;16.936;2024-01-15T10:53:04;5.72;;;3.55;;
53903;SDS011;39812;52.430;16.936;2024-01-15T10:55:30;15.10;;;4.43;;
53903;SDS011;39812;52.430;16.936;2024-01-15T10:57:58;8.20;;;3.47;;
53903;SDS011;39812;52.430;16.936;2024-01-15T11:00:24;4.47;;;2.33;;
53903;SDS011;39812;52.430;16.936;2024-01-15T11:02:50;8.30;;;3.90;;
53903;SDS011;39812;52.430;16.936;2024-01-15T11:05:20;12.13;;;4.18;;
53903;SDS011;39812;52.430;16.936;2024-01-15T11:07:47;7.30;;;3.10;;
53903;SDS011;39812;52.430;16.936;2024-01-15T11:13:20;7.53;;;3.28;;
53903;SDS011;39812;52.430;16.936;2024-01-15T11:16:04;6.57;;;2.75;;
53903;SDS011;39812;52.430;16.936;2024-01-15T11:18:37;8.77;;;4.03;;
53903;SDS011;39812;52.430;16.936;2024-01-15T11:23:48;7.97;;;3.40;;
53903;SDS011;39812;52.430;16.936;2024-01-15T11:26:37;7.82;;;3.78;;
53903;SDS011;39812;52.430;16.936;2024-01-15T11:29:06;7.10;;;4.10;;
53903;SDS011;39812;52.430;16.936;2024-01-15T11:34:05;7.20;;;3.47;;
53903;SDS011;39812;52.430;16.936;2024-01-15T11:41:58;7.20;;;2.63;;
53903;SDS011;39812;52.430;16.936;2024-01-15T11:44:25;24.02;;;4.43;;
53903;SDS011;39812;52.430;16.936;2024-01-15T11:46:57;10.00;;;2.63;;
53903;SDS011;39812;52.430;16.936;2024-01-15T11:52:04;6.43;;;3.67;;
53903;SDS011;39812;52.430;16.936;2024-01-15T11:54:32;8.93;;;3.20;;
53903;SDS011;39812;52.430;16.936;2024-01-15T11:57:00;9.02;;;3.08;;
53903;SDS011;39812;52.430;16.936;2024-01-15T11:59:34;9.38;;;3.10;;
53903;SDS011;39812;52.430;16.936;2024-01-15T12:02:00;7.63;;;3.30;;
53903;SDS011;39812;52.430;16.936;2024-01-15T12:04:27;5.88;;;2.92;;
53903;SDS011;39812;52.430;16.936;2024-01-15T12:06:52;5.80;;;3.42;;
53903;SDS011;39812;52.430;16.936;2024-01-15T12:09:21;4.65;;;2.75;;
53903;SDS011;39812;52.430;16.936;2024-01-15T12:11:53;4.15;;;2.85;;
53903;SDS011;39812;52.430;16.936;2024-01-15T12:14:25;9.07;;;3.67;;
53903;SDS011;39812;52.430;16.936;2024-01-15T12:16:52;8.82;;;3.00;;
53903;SDS011;39812;52.430;16.936;2024-01-15T12:19:18;9.98;;;3.30;;
53903;SDS011;39812;52.430;16.936;2024-01-15T12:21:44;6.85;;;3.28;;
53903;SDS011;39812;52.430;16.936;2024-01-15T12:24:10;10.90;;;3.35;;
53903;SDS011;39812;52.430;16.936;2024-01-15T12:26:36;11.50;;;4.20;;
53903;SDS011;39812;52.430;16.936;2024-01-15T12:29:02;8.90;;;4.05;;
53903;SDS011;39812;52.430;16.936;2024-01-15T12:31:29;9.80;;;4.50;;
53903;SDS011;39812;52.430;16.936;2024-01-15T12:33:55;6.70;;;2.95;;
53903;SDS011;39812;52.430;16.936;2024-01-15T12:36:21;13.55;;;3.05;;
53903;SDS011;39812;52.430;16.936;2024-01-15T12:38:47;8.77;;;3.10;;
53903;SDS011;39812;52.430;16.936;2024-01-15T12:41:13;4.15;;;2.63;;
53903;SDS011;39812;52.430;16.936;2024-01-15T12:43:39;10.20;;;2.88;;
53903;SDS011;39812;52.430;16.936;2024-01-15T12:46:05;6.15;;;2.88;;
53903;SDS011;39812;52.430;16.936;2024-01-15T12:48:31;10.95;;;2.63;;
53903;SDS011;39812;52.430;16.936;2024-01-15T12:50:57;7.32;;;2.72;;
53903;SDS011;39812;52.430;16.936;2024-01-15T12:53:23;4.85;;;2.38;;
53903;SDS011;39812;52.430;16.936;2024-01-15T12:55:48;10.05;;;2.35;;
53903;SDS011;39812;52.430;16.936;2024-01-15T12:58:14;4.10;;;1.80;;
53903;SDS011;39812;52.430;16.936;2024-01-15T13:00:40;5.38;;;2.60;;
53903;SDS011;39812;52.430;16.936;2024-01-15T13:03:05;5.88;;;2.30;;
53903;SDS011;39812;52.430;16.936;2024-01-15T13:05:32;10.43;;;2.60;;
53903;SDS011;39812;52.430;16.936;2024-01-15T13:08:01;9.82;;;2.63;;
53903;SDS011;39812;52.430;16.936;2024-01-15T13:10:28;5.32;;;1.98;;
53903;SDS011;39812;52.430;16.936;2024-01-15T13:12:55;6.88;;;2.10;;
53903;SDS011;39812;52.430;16.936;2024-01-15T13:15:21;5.00;;;1.92;;
53903;SDS011;39812;52.430;16.936;2024-01-15T13:17:46;5.45;;;2.20;;
53903;SDS011;39812;52.430;16.936;2024-01-15T13:20:12;5.07;;;2.28;;
53903;SDS011;39812;52.430;16.936;2024-01-15T13:22:38;5.43;;;1.95;;
53903;SDS011;39812;52.430;16.936;2024-01-15T13:25:05;4.60;;;2.30;;
53903;SDS011;39812;52.430;16.936;2024-01-15T13:27:32;8.30;;;2.42;;
53903;SDS011;39812;52.430;16.936;2024-01-15T13:30:00;7.47;;;2.88;;
53903;SDS011;39812;52.430;16.936;2024-01-15T13:32:28;6.93;;;2.20;;
53903;SDS011;39812;52.430;16.936;2024-01-15T13:34:54;3.33;;;1.73;;
53903;SDS011;39812;52.430;16.936;2024-01-15T13:37:23;5.30;;;2.42;;
53903;SDS011;39812;52.430;16.936;2024-01-15T13:39:49;5.65;;;1.90;;
53903;SDS011;39812;52.430;16.936;2024-01-15T13:42:17;4.60;;;2.03;;
53903;SDS011;39812;52.430;16.936;2024-01-15T13:44:43;4.97;;;2.05;;
53903;SDS011;39812;52.430;16.936;2024-01-15T13:47:09;2.90;;;1.40;;
53903;SDS011;39812;52.430;16.936;2024-01-15T13:49:35;7.28;;;2.50;;
53903;SDS011;39812;52.430;16.936;2024-01-15T13:52:01;4.25;;;1.90;;
53903;SDS011;39812;52.430;16.936;2024-01-15T13:54:28;2.53;;;1.40;;
53903;SDS011;39812;52.430;16.936;2024-01-15T13:56:55;0.95;;;0.82;;
53903;SDS011;39812;52.430;16.936;2024-01-15T13:59:21;1.00;;;0.90;;
53903;SDS011;39812;52.430;16.936;2024-01-15T14:01:46;3.72;;;1.10;;
53903;SDS011;39812;52.430;16.936;2024-01-15T14:04:12;3.53;;;2.20;;
53903;SDS011;39812;52.430;16.936;2024-01-15T14:06:38;5.00;;;2.15;;
53903;SDS011;39812;52.430;16.936;2024-01-15T14:09:04;3.53;;;1.85;;
53903;SDS011;39812;52.430;16.936;2024-01-15T14:11:30;6.03;;;2.22;;
53903;SDS011;39812;52.430;16.936;2024-01-15T14:13:56;4.95;;;2.10;;
53903;SDS011;39812;52.430;16.936;2024-01-15T14:16:22;2.90;;;1.80;;
53903;SDS011;39812;52.430;16.936;2024-01-15T14:18:48;6.43;;;1.83;;
53903;SDS011;39812;52.430;16.936;2024-01-15T14:21:14;5.63;;;2.30;;
53903;SDS011;39812;52.430;16.936;2024-01-15T14:23:40;6.63;;;2.58;;
53903;SDS011;39812;52.430;16.936;2024-01-15T14:26:06;7.47;;;3.05;;
53903;SDS011;39812;52.430;16.936;2024-01-15T14:28:32;5.15;;;2.45;;
53903;SDS011;39812;52.430;16.936;2024-01-15T14:30:57;2.97;;;1.98;;
53903;SDS011;39812;52.430;16.936;2024-01-15T14:33:25;4.63;;;2.45;;
53903;SDS011;39812;52.430;16.936;2024-01-15T14:35:51;4.35;;;1.90;;